Flight Track Log - Related Links

Times and Time Zones

All times are in EDT time to prevent confusion due to time zone crossing. See the EJA694 flight status page for this flight to view local times or setup timezone preferences in your user account.

Time Position Orientation Groundspeed Altitude Reporting Facility
EDT Latitude Longitude Course Direction KTS MPH feet Rate Location/Type
Mon 09:38:54 AM 39.5833 -104.8500 339° North 169 194 6,900  Level Denver TRACON
Mon 09:39:54 AM 39.6500 -104.8833 339° North 236 272 7,900 1,500 Climbing Denver TRACON
Mon 09:40:54 AM 39.7167 -104.8833 360° North 264 304 9,900 2,033 Climbing Denver TRACON
Mon 09:41:55 AM 39.8000 -104.8833 360° North 294 338 12,000 2,083 Climbing Denver TRACON
Mon 09:42:55 AM 39.8833 -104.8500 17° North 305 351 14,100 2,070 Climbing Denver TRACON
Mon 09:44:17 AM 39.9894 -104.7833 26° Northeast 308 354 16,900 1,804 Climbing Denver Center
Mon 09:45:18 AM 40.0742 -104.7406 21° North 323 372 18,400 1,672 Climbing Denver Center
Mon 09:46:19 AM 40.1575 -104.6969 22° Northeast 322 371 20,300 1,756 Climbing Denver Center
Mon 09:47:21 AM 40.2522 -104.6481 21° North 336 387 22,000 1,561 Climbing Denver Center
Mon 09:48:22 AM 40.3411 -104.6008 22° Northeast 344 396 23,500 1,415 Climbing Denver Center
Mon 09:49:24 AM 40.4303 -104.5544 22° Northeast 339 390 24,900 1,317 Climbing Denver Center
Mon 09:50:25 AM 40.5222 -104.5044 22° Northeast 358 412 26,200 1,220 Climbing Denver Center
Mon 09:51:27 AM 40.6144 -104.4556 22° Northeast 357 411 27,400 878 Climbing Denver Center
Mon 09:52:28 AM 40.7114 -104.4053 21° North 373 429 28,000 293 Climbing Denver Center
Mon 09:53:30 AM 40.8142 -104.3639 17° North 388 447 28,000  Level Denver Center
Mon 09:54:44 AM 40.9658 -104.3006 17° North 405 466 28,000  Level Denver Center
Mon 09:55:45 AM 41.0731 -104.2561 17° North 406 467 28,000  Level Denver Center
Mon 09:56:47 AM 41.1764 -104.2144 17° North 405 466 28,000  Level Denver Center
Mon 09:57:49 AM 41.2972 -104.1647 17° North 406 467 28,000  Level Denver Center
Mon 09:58:50 AM 41.4006 -104.1236 17° North 405 466 28,000  Level Denver Center
Mon 09:59:52 AM 41.5050 -104.0792 18° North 411 473 28,000  Level Denver Center
Mon 10:00:54 AM 41.6250 -104.0289 17° North 406 467 28,000  Level Denver Center
Mon 10:01:56 AM 41.7289 -103.9858 17° North 407 468 28,000  Level Denver Center
Mon 10:02:57 AM 41.8503 -103.9356 17° North 410 472 28,000  Level Denver Center
Mon 10:03:59 AM 41.9553 -103.8911 17° North 412 474 28,000  Level Denver Center
Mon 10:05:01 AM 42.0778 -103.8397 17° North 413 475 28,000  Level Denver Center
Mon 10:06:03 AM 42.1825 -103.7944 18° North 413 475 28,000  Level Denver Center
Mon 10:07:05 AM 42.3050 -103.7428 17° North 415 478 28,000  Level Denver Center
Mon 10:08:07 AM 42.4114 -103.6969 18° North 420 483 28,000  Level Denver Center
Mon 10:09:09 AM 42.5339 -103.6453 17° North 416 479 28,000  Level Denver Center
Mon 10:10:10 AM 42.6403 -103.5978 18° North 419 482 28,000  Level Denver Center
Mon 10:11:12 AM 42.7639 -103.5461 17° North 419 482 28,000 -532 Level Denver Center
Mon 10:12:14 AM 42.8728 -103.4986 18° North 426 490 26,900 -1,597 Descending Denver Center
Mon 10:13:16 AM 42.9814 -103.4494 18° North 430 495 24,700 -2,323 Descending Denver Center
Mon 10:14:18 AM 43.1086 -103.3922 18° North 432 497 22,100 -2,323 Descending Denver Center
Mon 10:15:20 AM 43.2197 -103.3447 17° North 435 501 19,900 -2,412 Descending Denver Center
Mon 10:16:00 AM 43.3064 -103.3067 18° North 411 473 18,000 -2,079 Descending Denver Center
Mon 10:17:01 AM 43.4081 -103.2611 18° North 396 456 16,400 -1,934 Descending Denver Center
Mon 10:18:01 AM 43.5142 -103.2169 17° North 383 441 14,100 -2,132 Descending Denver Center
Mon 10:19:02 AM 43.6081 -103.1764 17° North 365 420 12,100 -2,016 Descending Denver Center
Mon 10:20:03 AM 43.7000 -103.1506 11° North 302 348 10,000 -1,835 Descending Denver Center
Mon 10:21:03 AM 43.7778 -103.1289 11° North 288 331 8,400 -992 Descending Denver Center
Mon 10:22:04 AM 43.8586 -103.1150 North 283 326 8,000 -264 Descending Denver Center
Mon 10:22:34 AM 43.8917 -103.1336 338° Northwest 276 318 8,000  Level Denver Center
Mon 10:23:04 AM 43.9200 -103.1567 330° Northwest 216 249 8,000  Level Denver Center
Mon 10:23:37 AM 43.9442 -103.1686 340° North 241 277 8,000  Level Denver Center
Mon 10:24:39 AM 44.0061 -103.2092 335° Northwest 226 260 8,000  Level Denver Center
Mon 10:25:41 AM 44.0575 -103.2456 333° Northwest 221 254 8,000  Level Denver Center
Mon 10:26:43 AM 44.1161 -103.2700 343° North 215 247 8,000  Level Denver Center
Mon 10:27:45 AM 44.1686 -103.2503 15° North 206 237 8,000 -414 Level Denver Center
Mon 10:29:08 AM 44.1997 -103.1811 58° Northeast 196 226 7,000 -723 Descending Denver Center

Login

Don't have an account? Register now (free) for customized features, flight alerts, and more!